createdAt,value
2023-02-03T00:00:33.785Z,102242.63
2023-02-03T00:01:25.405Z,102246.56
2023-02-03T00:02:17.052Z,102236.19
2023-02-03T00:03:08.659Z,102236.91
2023-02-03T00:04:00.184Z,102230.84
2023-02-03T00:04:51.664Z,102222.69
2023-02-03T00:05:43.968Z,102221.81
2023-02-03T00:06:35.846Z,102223.66
2023-02-03T00:07:27.798Z,102219.22
2023-02-03T00:08:20.379Z,102208.84
2023-02-03T00:09:11.930Z,102213.22
2023-02-03T00:10:03.839Z,102206.47
2023-02-03T00:10:55.601Z,102202.19
2023-02-03T00:11:47.557Z,102208.84
2023-02-03T00:12:40.743Z,102207.72
2023-02-03T00:13:32.884Z,102202.59
2023-02-03T00:14:24.341Z,102196.41
2023-02-03T00:15:16.327Z,102190.44
2023-02-03T00:16:07.980Z,102198.38
2023-02-03T00:16:59.523Z,102200.31
2023-02-03T00:17:51.169Z,102191.72
2023-02-03T00:18:42.831Z,102196.84
2023-02-03T00:19:34.466Z,102200.25
2023-02-03T00:20:27.014Z,102196.84
2023-02-03T00:21:18.876Z,102195.06
2023-02-03T00:22:10.344Z,102196.84
2023-02-03T00:23:11.294Z,102196.75
2023-02-03T00:24:02.792Z,102199.59
2023-02-03T00:24:54.283Z,102195.56
2023-02-03T00:25:45.982Z,102194.31
2023-02-03T00:26:44.168Z,102188.41
2023-02-03T00:27:35.759Z,102191.72
2023-02-03T00:28:31.766Z,102182.25
2023-02-03T00:29:26.118Z,102182.00
2023-02-03T00:30:18.096Z,102181.84
2023-02-03T00:31:23.885Z,102182.97
2023-02-03T00:32:15.735Z,102179.00
2023-02-03T00:33:08.904Z,102183.22
2023-02-03T00:34:00.890Z,102183.06
2023-02-03T00:34:52.635Z,102180.47
2023-02-03T00:35:44.270Z,102175.28
2023-02-03T00:36:36.158Z,102177.13
2023-02-03T00:37:27.693Z,102180.47
2023-02-03T00:38:19.178Z,102179.09
2023-02-03T00:39:10.656Z,102182.56
2023-02-03T00:40:02.752Z,102177.94
2023-02-03T00:40:54.716Z,102178.84
2023-02-03T00:41:47.748Z,102188.56
2023-02-03T00:42:39.515Z,102183.47
2023-02-03T00:43:31.292Z,102180.53
2023-02-03T00:44:22.923Z,102182.41
2023-02-03T00:45:14.606Z,102179.16
2023-02-03T00:46:06.175Z,102175.69
2023-02-03T00:46:58.094Z,102184.63
2023-02-03T00:47:49.949Z,102183.06
2023-02-03T00:48:41.566Z,102177.88
2023-02-03T00:49:33.963Z,102175.28
2023-02-03T00:50:25.697Z,102180.16
2023-02-03T00:51:17.546Z,102179.34
2023-02-03T00:52:09.026Z,102177.13
2023-02-03T00:53:00.470Z,102174.63
2023-02-03T00:53:51.954Z,102174.72
2023-02-03T00:54:43.741Z,102169.44
2023-02-03T00:55:35.877Z,102159.31
2023-02-03T00:56:29.621Z,102157.53
2023-02-03T00:57:21.224Z,102159.88
2023-02-03T00:58:12.776Z,102155.75
2023-02-03T00:59:04.443Z,102166.69
2023-02-03T00:59:57.753Z,102171.78
2023-02-03T01:00:49.334Z,102166.69
2023-02-03T01:01:40.862Z,102171.16
2023-02-03T01:02:32.437Z,102163.69
2023-02-03T01:03:24.083Z,102171.00
2023-02-03T01:04:15.893Z,102169.94
2023-02-03T01:05:08.045Z,102171.72
2023-02-03T01:06:20.516Z,102168.56
2023-02-03T01:07:13.099Z,102178.53
2023-02-03T01:08:05.234Z,102170.19
2023-02-03T01:08:56.729Z,102175.22
2023-02-03T01:09:48.187Z,102170.41
2023-02-03T01:10:40.040Z,102168.63
2023-02-03T01:11:33.007Z,102161.09
2023-02-03T01:12:24.748Z,102160.34
2023-02-03T01:13:16.400Z,102165.00
2023-02-03T01:14:08.538Z,102166.78
2023-02-03T01:15:04.117Z,102175.28
2023-02-03T01:15:55.594Z,102180.41
2023-02-03T01:16:47.093Z,102170.72
2023-02-03T01:17:38.852Z,102187.38
2023-02-03T01:18:30.306Z,102176.84
2023-02-03T01:19:22.438Z,102186.41
2023-02-03T01:20:14.003Z,102183.81
2023-02-03T01:21:10.757Z,102194.41
2023-02-03T01:22:02.275Z,102192.56
2023-02-03T01:22:54.373Z,102189.81
2023-02-03T01:23:46.670Z,102188.50
2023-02-03T01:24:38.400Z,102192.69
2023-02-03T01:25:30.094Z,102192.47
2023-02-03T01:26:23.602Z,102197.81
2023-02-03T01:27:15.177Z,102207.38
2023-02-03T01:28:06.921Z,102213.53
2023-02-03T01:29:00.150Z,102207.72
2023-02-03T01:29:51.772Z,102215.34
2023-02-03T01:30:43.302Z,102210.09
2023-02-03T01:31:39.645Z,102213.38
2023-02-03T01:32:32.177Z,102212.41
2023-02-03T01:33:23.693Z,102219.88
2023-02-03T01:34:16.422Z,102220.03
2023-02-03T01:35:08.516Z,102214.94
2023-02-03T01:36:00.862Z,102212.25
2023-02-03T01:36:52.606Z,102215.91
2023-02-03T01:37:44.197Z,102212.25
2023-02-03T01:38:38.147Z,102216.72
2023-02-03T01:39:30.380Z,102216.72
2023-02-03T01:40:21.840Z,102210.63
2023-02-03T01:41:16.927Z,102213.38
2023-02-03T01:42:13.663Z,102210.13
2023-02-03T01:43:05.289Z,102212.09
2023-02-03T01:43:59.051Z,102220.69
2023-02-03T01:44:52.069Z,102218.56
2023-02-03T01:45:43.596Z,102217.06
2023-02-03T01:46:40.169Z,102219.56
2023-02-03T01:47:52.228Z,102214.47
2023-02-03T01:48:44.533Z,102219.06
2023-02-03T01:49:39.297Z,102218.19
2023-02-03T01:50:36.222Z,102225.81
2023-02-03T01:51:28.061Z,102217.63
2023-02-03T01:52:19.836Z,102221.66
2023-02-03T01:53:12.508Z,102215.44
2023-02-03T01:54:07.261Z,102224.84
2023-02-03T01:55:02.672Z,102220.53
2023-02-03T01:55:54.466Z,102218.91
2023-02-03T01:56:52.213Z,102222.47
2023-02-03T01:57:52.234Z,102215.34
2023-02-03T01:58:47.226Z,102216.25
2023-02-03T01:59:39.979Z,102221.44
2023-02-03T02:00:31.744Z,102232.78
2023-02-03T02:01:23.299Z,102223.38
2023-02-03T02:02:15.022Z,102219.00
2023-02-03T02:03:09.075Z,102214.53
2023-02-03T02:04:06.031Z,102223.13
2023-02-03T02:05:06.003Z,102224.34
2023-02-03T02:06:11.029Z,102222.56
2023-02-03T02:07:06.940Z,102212.19
2023-02-03T02:08:01.863Z,102215.69
2023-02-03T02:08:55.401Z,102219.16
2023-02-03T02:09:48.608Z,102217.06
2023-02-03T02:10:40.250Z,102204.25
2023-02-03T02:11:32.042Z,102189.47
2023-02-03T02:12:23.709Z,102198.13
2023-02-03T02:13:18.242Z,102187.03
2023-02-03T02:14:11.184Z,102194.72
2023-02-03T02:15:03.836Z,102201.38
2023-02-03T02:16:00.729Z,102206.56
2023-02-03T02:17:05.917Z,102206.19
2023-02-03T02:18:28.444Z,102205.13
2023-02-03T02:19:46.004Z,102212.09
2023-02-03T02:21:08.013Z,102209.91
2023-02-03T02:22:15.847Z,102219.16
2023-02-03T02:23:25.032Z,102217.47
2023-02-03T02:24:57.484Z,102219.16
2023-02-03T02:26:22.849Z,102215.44
2023-02-03T02:27:33.105Z,102209.75
2023-02-03T02:28:46.902Z,102216.41
2023-02-03T02:30:32.315Z,102215.97
2023-02-03T02:31:50.874Z,102217.78
2023-02-03T02:33:22.858Z,102207.81
2023-02-03T02:34:28.136Z,102206.84
2023-02-03T02:35:29.988Z,102190.34
2023-02-03T02:36:35.122Z,102185.00
2023-02-03T02:37:50.931Z,102189.63
2023-02-03T02:39:05.025Z,102186.78
2023-02-03T02:40:25.056Z,102192.78
2023-02-03T02:41:52.265Z,102172.78
2023-02-03T02:42:59.221Z,102180.78
2023-02-03T02:44:03.531Z,102169.69
2023-02-03T02:45:16.742Z,102170.34
2023-02-03T02:46:14.801Z,102168.78
2023-02-03T02:47:18.908Z,102169.53
2023-02-03T02:48:29.548Z,102164.41
2023-02-03T02:49:29.782Z,102176.34
2023-02-03T02:50:28.345Z,102162.47
2023-02-03T02:51:23.517Z,102163.22
2023-02-03T02:52:18.217Z,102159.00
2023-02-03T02:53:13.719Z,102157.38
2023-02-03T02:54:13.836Z,102160.50
2023-02-03T02:55:20.200Z,102171.06
2023-02-03T02:56:16.075Z,102162.63
2023-02-03T02:57:13.601Z,102166.13
2023-02-03T02:58:11.785Z,102161.59
2023-02-03T02:59:06.155Z,102161.59
2023-02-03T02:59:57.713Z,102167.00
2023-02-03T03:00:51.542Z,102173.09
2023-02-03T03:01:43.090Z,102171.31
2023-02-03T03:02:36.908Z,102186.56
2023-02-03T03:03:28.953Z,102172.78
2023-02-03T03:04:34.041Z,102173.81
2023-02-03T03:05:28.876Z,102181.44
2023-02-03T03:06:39.707Z,102176.19
2023-02-03T03:07:40.014Z,102170.91
2023-02-03T03:08:43.819Z,102186.31
2023-02-03T03:09:43.005Z,102185.50
2023-02-03T03:10:37.887Z,102180.41
2023-02-03T03:11:37.473Z,102180.06
2023-02-03T03:12:37.236Z,102178.47
2023-02-03T03:13:36.085Z,102181.22
2023-02-03T03:14:32.508Z,102180.25
2023-02-03T03:15:31.018Z,102178.28
2023-02-03T03:16:29.778Z,102178.03
2023-02-03T03:17:29.740Z,102175.44
2023-02-03T03:18:49.306Z,102173.09
2023-02-03T03:19:52.787Z,102165.47
2023-02-03T03:20:49.708Z,102165.38
2023-02-03T03:21:50.361Z,102160.44
2023-02-03T03:22:48.849Z,102154.34
2023-02-03T03:23:46.229Z,102146.50
2023-02-03T03:24:47.753Z,102159.22
2023-02-03T03:25:49.259Z,102157.75
2023-02-03T03:26:56.138Z,102151.53
2023-02-03T03:28:08.554Z,102154.19
2023-02-03T03:29:11.271Z,102143.09
2023-02-03T03:30:11.601Z,102155.97
2023-02-03T03:31:04.120Z,102160.59
2023-02-03T03:31:56.614Z,102154.59
2023-02-03T03:32:49.410Z,102164.72
2023-02-03T03:33:41.550Z,102156.28
2023-02-03T03:34:34.136Z,102173.59
2023-02-03T03:35:57.294Z,102165.16
2023-02-03T03:37:15.374Z,102169.44
2023-02-03T03:38:21.911Z,102171.31
2023-02-03T03:39:38.560Z,102166.28
2023-02-03T03:40:45.158Z,102174.78
2023-02-03T03:42:04.619Z,102164.19
2023-02-03T03:42:58.907Z,102154.50
2023-02-03T03:43:55.937Z,102162.88
2023-02-03T03:45:11.834Z,102165.53
2023-02-03T03:46:30.862Z,102168.47
2023-02-03T03:47:36.194Z,102179.75
2023-02-03T03:48:54.115Z,102167.66
2023-02-03T03:49:50.330Z,102157.44
2023-02-03T03:50:55.769Z,102156.38
2023-02-03T03:51:58.548Z,102166.63
2023-02-03T03:52:54.253Z,102164.03
2023-02-03T03:53:51.076Z,102163.53
2023-02-03T03:54:43.803Z,102154.81
2023-02-03T03:55:39.425Z,102147.84
2023-02-03T03:56:46.943Z,102147.78
2023-02-03T03:57:44.361Z,102151.09
2023-02-03T03:58:42.089Z,102155.25
2023-02-03T03:59:40.931Z,102144.13
2023-02-03T04:00:36.681Z,102152.00
2023-02-03T04:01:30.766Z,102148.91
2023-02-03T04:02:23.753Z,102152.50
2023-02-03T04:03:24.265Z,102151.34
2023-02-03T04:04:16.879Z,102159.16
2023-02-03T04:05:11.937Z,102153.53
2023-02-03T04:06:03.951Z,102162.28
2023-02-03T04:06:55.777Z,102169.44
2023-02-03T04:07:47.740Z,102170.50
2023-02-03T04:08:39.618Z,102162.47
2023-02-03T04:09:31.638Z,102165.97
2023-02-03T04:10:29.298Z,102169.44
2023-02-03T04:11:39.589Z,102166.84
2023-02-03T04:12:31.036Z,102160.84
2023-02-03T04:13:22.912Z,102155.47
2023-02-03T04:14:14.366Z,102156.44
2023-02-03T04:15:06.241Z,102160.78
2023-02-03T04:15:57.930Z,102152.16
2023-02-03T04:16:49.493Z,102145.19
2023-02-03T04:17:41.133Z,102151.91
2023-02-03T04:18:32.820Z,102144.78
2023-02-03T04:19:24.931Z,102151.75
2023-02-03T04:20:16.987Z,102141.47
2023-02-03T04:21:08.436Z,102146.22
2023-02-03T04:22:00.115Z,102135.53
2023-02-03T04:22:55.546Z,102142.50
2023-02-03T04:23:47.301Z,102136.44
2023-02-03T04:24:38.720Z,102149.31
2023-02-03T04:25:30.415Z,102153.84
2023-02-03T04:26:22.011Z,102160.59
2023-02-03T04:27:13.603Z,102145.09
2023-02-03T04:28:06.069Z,102149.41
2023-02-03T04:28:57.632Z,102150.38
2023-02-03T04:29:50.619Z,102154.81
2023-02-03T04:30:42.282Z,102166.13
2023-02-03T04:31:33.977Z,102159.31
2023-02-03T04:32:25.460Z,102165.31
2023-02-03T04:33:16.870Z,102166.13
2023-02-03T04:34:08.419Z,102155.91
2023-02-03T04:34:59.998Z,102157.84
2023-02-03T04:35:51.537Z,102146.38
2023-02-03T04:36:43.087Z,102148.25
2023-02-03T04:37:34.641Z,102155.75
2023-02-03T04:38:26.082Z,102152.88
2023-02-03T04:39:17.626Z,102150.53
2023-02-03T04:40:09.943Z,102143.97
2023-02-03T04:41:01.444Z,102146.47
2023-02-03T04:41:52.939Z,102148.25
2023-02-03T04:42:44.448Z,102142.00
2023-02-03T04:43:36.014Z,102143.56
2023-02-03T04:44:27.460Z,102139.41
2023-02-03T04:45:18.918Z,102142.81
2023-02-03T04:46:10.518Z,102143.56
2023-02-03T04:47:03.088Z,102144.22
2023-02-03T04:47:54.840Z,102153.03
2023-02-03T04:48:46.459Z,102146.22
2023-02-03T04:49:38.026Z,102153.13
2023-02-03T04:50:29.515Z,102152.00
2023-02-03T04:51:21.172Z,102153.28
2023-02-03T04:52:15.286Z,102149.88
2023-02-03T04:53:07.070Z,102154.44
2023-02-03T04:53:58.544Z,102153.66
2023-02-03T04:54:50.076Z,102146.75
2023-02-03T04:55:41.761Z,102145.66
2023-02-03T04:56:33.393Z,102144.94
2023-02-03T04:57:24.897Z,102149.88
2023-02-03T04:58:16.455Z,102139.41
2023-02-03T04:59:08.408Z,102143.16
2023-02-03T04:59:59.860Z,102151.16
2023-02-03T05:00:51.540Z,102159.81
2023-02-03T05:01:43.426Z,102155.19
2023-02-03T05:02:35.103Z,102146.56
2023-02-03T05:03:26.768Z,102136.25
2023-02-03T05:04:18.780Z,102131.63
2023-02-03T05:05:10.301Z,102138.97
2023-02-03T05:06:03.295Z,102138.44
2023-02-03T05:06:56.340Z,102149.78
2023-02-03T05:07:47.889Z,102141.38
2023-02-03T05:08:39.335Z,102147.72
2023-02-03T05:09:30.793Z,102149.38
2023-02-03T05:10:22.491Z,102138.06
2023-02-03T05:11:13.956Z,102139.75
2023-02-03T05:12:05.668Z,102137.06
2023-02-03T05:12:57.565Z,102139.84
2023-02-03T05:13:50.219Z,102130.19
2023-02-03T05:14:41.762Z,102128.41
2023-02-03T05:15:33.233Z,102134.41
2023-02-03T05:16:24.841Z,102131.00
2023-02-03T05:17:16.450Z,102136.00
2023-02-03T05:18:07.881Z,102137.88
2023-02-03T05:18:59.704Z,102131.56
2023-02-03T05:19:51.172Z,102123.63
2023-02-03T05:20:42.630Z,102113.72
2023-02-03T05:21:34.590Z,102110.97
2023-02-03T05:22:27.104Z,102112.75
2023-02-03T05:23:18.585Z,102112.13
2023-02-03T05:24:10.336Z,102116.88
2023-02-03T05:25:02.751Z,102120.38
2023-02-03T05:25:54.196Z,102099.66
2023-02-03T05:26:45.649Z,102108.47
2023-02-03T05:27:41.629Z,102101.53
2023-02-03T05:28:33.383Z,102111.94
2023-02-03T05:29:24.770Z,102113.72
2023-02-03T05:30:16.399Z,102112.59
2023-02-03T05:31:08.779Z,102118.19
2023-02-03T05:32:00.622Z,102119.16
2023-02-03T05:32:52.279Z,102112.50
2023-02-03T05:33:43.729Z,102107.47
2023-02-03T05:34:35.268Z,102116.06
2023-02-03T05:35:26.997Z,102110.25
2023-02-03T05:36:18.726Z,102099.75
2023-02-03T05:37:10.147Z,102101.72
2023-02-03T05:38:02.217Z,102098.13
2023-02-03T05:38:53.828Z,102117.69
2023-02-03T05:39:45.488Z,102108.50
2023-02-03T05:40:55.301Z,102108.38
2023-02-03T05:41:52.623Z,102127.34
2023-02-03T05:42:50.609Z,102117.63
2023-02-03T05:43:42.179Z,102115.09
2023-02-03T05:44:33.697Z,102113.41
2023-02-03T05:45:25.432Z,102122.06
2023-02-03T05:46:17.170Z,102109.19
2023-02-03T05:47:09.034Z,102127.19
2023-02-03T05:48:02.509Z,102122.00
2023-02-03T05:48:54.000Z,102124.59
2023-02-03T05:49:45.637Z,102126.28
2023-02-03T05:50:38.798Z,102129.22
2023-02-03T05:51:33.406Z,102127.50
2023-02-03T05:52:24.955Z,102131.88
2023-02-03T05:53:16.780Z,102138.69
2023-02-03T05:54:08.743Z,102124.19
2023-02-03T05:55:00.281Z,102124.38
2023-02-03T05:55:52.579Z,102119.41
2023-02-03T05:56:44.154Z,102118.38
2023-02-03T05:57:35.830Z,102124.59
2023-02-03T05:58:27.447Z,102112.03
2023-02-03T05:59:18.919Z,102125.81
2023-02-03T06:00:18.242Z,102123.22
2023-02-03T06:01:11.615Z,102118.38
2023-02-03T06:02:03.198Z,102122.66
2023-02-03T06:03:00.915Z,102120.06
2023-02-03T06:03:52.905Z,102120.88
2023-02-03T06:04:44.426Z,102122.97
2023-02-03T06:05:40.923Z,102133.34
2023-02-03T06:06:35.618Z,102138.53
2023-02-03T06:07:27.165Z,102130.91
2023-02-03T06:08:18.667Z,102143.97
2023-02-03T06:09:10.427Z,102136.00
2023-02-03T06:10:02.447Z,102139.34
2023-02-03T06:11:02.781Z,102137.56
2023-02-03T06:11:54.251Z,102141.28
2023-02-03T06:12:46.005Z,102134.16
2023-02-03T06:13:38.534Z,102137.47
2023-02-03T06:14:30.015Z,102146.06
2023-02-03T06:15:21.735Z,102139.59
2023-02-03T06:16:13.265Z,102138.84
2023-02-03T06:17:04.842Z,102132.06
2023-02-03T06:17:56.277Z,102142.53
2023-02-03T06:18:47.945Z,102131.97
2023-02-03T06:19:39.662Z,102154.38
2023-02-03T06:20:31.277Z,102152.13
2023-02-03T06:21:23.010Z,102150.50
2023-02-03T06:22:14.996Z,102152.03
2023-02-03T06:23:06.462Z,102150.78
2023-02-03T06:23:58.064Z,102148.97
2023-02-03T06:24:49.700Z,102153.41
2023-02-03T06:25:41.236Z,102147.44
2023-02-03T06:26:32.872Z,102138.97
2023-02-03T06:27:24.631Z,102136.81
2023-02-03T06:28:16.689Z,102129.03
2023-02-03T06:29:08.435Z,102133.25
2023-02-03T06:30:00.256Z,102136.66
2023-02-03T06:30:53.107Z,102132.94
2023-02-03T06:31:44.895Z,102140.22
2023-02-03T06:32:36.625Z,102137.00
2023-02-03T06:33:28.228Z,102140.31
2023-02-03T06:34:19.646Z,102141.13
2023-02-03T06:35:11.429Z,102135.22
2023-02-03T06:36:02.996Z,102146.75
2023-02-03T06:36:54.450Z,102139.66
2023-02-03T06:37:46.176Z,102135.28
2023-02-03T06:38:37.603Z,102138.69
2023-02-03T06:39:29.118Z,102141.19
2023-02-03T06:40:20.867Z,102143.34
2023-02-03T06:41:12.375Z,102141.56
2023-02-03T06:42:04.121Z,102140.66
2023-02-03T06:42:55.787Z,102149.53
2023-02-03T06:43:47.240Z,102158.28
2023-02-03T06:44:39.027Z,102150.53
2023-02-03T06:45:30.767Z,102155.53
2023-02-03T06:46:22.620Z,102163.13
2023-02-03T06:47:14.263Z,102157.84
2023-02-03T06:48:06.090Z,102152.50
2023-02-03T06:48:57.564Z,102154.28
2023-02-03T06:49:49.093Z,102152.19
2023-02-03T06:50:41.938Z,102149.88
2023-02-03T06:51:34.106Z,102130.84
2023-02-03T06:52:25.549Z,102139.59
2023-02-03T06:53:17.702Z,102149.06
2023-02-03T06:54:11.327Z,102158.81
2023-02-03T06:55:04.822Z,102151.47
2023-02-03T06:55:56.494Z,102152.34
2023-02-03T06:56:48.344Z,102148.75
2023-02-03T06:57:45.690Z,102146.47
2023-02-03T06:58:38.631Z,102150.78
2023-02-03T06:59:30.098Z,102149.72
2023-02-03T07:00:22.023Z,102146.97
2023-02-03T07:01:13.556Z,102144.38
2023-02-03T07:02:05.097Z,102144.63
2023-02-03T07:02:58.557Z,102140.16
2023-02-03T07:03:50.052Z,102142.53
2023-02-03T07:04:43.592Z,102137.50
2023-02-03T07:05:36.777Z,102137.41
2023-02-03T07:06:32.023Z,102137.81
2023-02-03T07:07:23.541Z,102152.63
2023-02-03T07:08:15.276Z,102152.50
2023-02-03T07:09:06.939Z,102147.22
2023-02-03T07:09:58.779Z,102151.31
2023-02-03T07:10:54.665Z,102150.25
2023-02-03T07:11:46.152Z,102153.00
2023-02-03T07:12:37.941Z,102161.69
2023-02-03T07:13:29.602Z,102157.47
2023-02-03T07:14:21.170Z,102165.47
2023-02-03T07:15:16.816Z,102145.44
2023-02-03T07:16:08.425Z,102150.53
2023-02-03T07:16:59.950Z,102150.50
2023-02-03T07:17:55.092Z,102145.19
2023-02-03T07:18:48.163Z,102153.75
2023-02-03T07:19:39.867Z,102150.25
2023-02-03T07:20:32.847Z,102161.59
2023-02-03T07:21:26.887Z,102147.28
2023-02-03T07:22:18.375Z,102148.19
2023-02-03T07:23:09.963Z,102139.50
2023-02-03T07:24:02.940Z,102140.41
2023-02-03T07:24:54.372Z,102147.88
2023-02-03T07:25:46.039Z,102158.00
2023-02-03T07:26:37.552Z,102151.66
2023-02-03T07:27:29.873Z,102159.25
2023-02-03T07:28:21.488Z,102150.41
2023-02-03T07:29:13.007Z,102155.03
2023-02-03T07:30:05.023Z,102151.50
2023-02-03T07:31:00.903Z,102156.00
2023-02-03T07:31:52.575Z,102155.31
2023-02-03T07:32:51.942Z,102155.19
2023-02-03T07:33:43.724Z,102167.03
2023-02-03T07:34:35.367Z,102160.88
2023-02-03T07:35:27.402Z,102166.13
2023-02-03T07:36:19.189Z,102168.97
2023-02-03T07:37:10.690Z,102160.38
2023-02-03T07:38:02.161Z,102162.06
2023-02-03T07:38:54.735Z,102162.22
2023-02-03T07:39:47.279Z,102166.28
2023-02-03T07:40:38.878Z,102162.16
2023-02-03T07:41:30.558Z,102156.72
2023-02-03T07:42:22.241Z,102163.69
2023-02-03T07:43:16.273Z,102155.31
2023-02-03T07:44:09.315Z,102158.66
2023-02-03T07:45:01.044Z,102163.78
2023-02-03T07:45:52.838Z,102156.06
2023-02-03T07:46:45.619Z,102151.81
2023-02-03T07:47:37.407Z,102144.69
2023-02-03T07:48:28.914Z,102143.16
2023-02-03T07:49:20.371Z,102152.59
2023-02-03T07:50:12.631Z,102148.84
2023-02-03T07:51:04.246Z,102153.31
2023-02-03T07:51:56.668Z,102161.19
2023-02-03T07:52:50.497Z,102153.41
2023-02-03T07:53:41.946Z,102162.81
2023-02-03T07:54:33.506Z,102158.59
2023-02-03T07:55:25.581Z,102159.56
2023-02-03T07:56:17.012Z,102162.31
2023-02-03T07:57:08.477Z,102169.84
2023-02-03T07:58:02.922Z,102166.53
2023-02-03T07:58:54.682Z,102167.34
2023-02-03T07:59:46.315Z,102159.81
2023-02-03T08:00:38.093Z,102161.91
2023-02-03T08:01:31.251Z,102167.50
2023-02-03T08:02:22.965Z,102164.19
2023-02-03T08:03:14.923Z,102159.47
2023-02-03T08:04:06.462Z,102155.91
2023-02-03T08:04:58.036Z,102152.59
2023-02-03T08:05:50.162Z,102155.38
2023-02-03T08:06:42.633Z,102162.31
2023-02-03T08:07:34.448Z,102159.72
2023-02-03T08:08:25.957Z,102165.00
2023-02-03T08:09:17.507Z,102167.81
2023-02-03T08:10:11.057Z,102179.25
2023-02-03T08:11:02.637Z,102169.03
2023-02-03T08:11:54.172Z,102180.78
2023-02-03T08:12:47.003Z,102173.81
2023-02-03T08:13:38.601Z,102160.94
2023-02-03T08:14:31.122Z,102162.47
2023-02-03T08:15:22.823Z,102172.13
2023-02-03T08:16:14.464Z,102166.94
2023-02-03T08:17:06.293Z,102177.47
2023-02-03T08:17:57.988Z,102166.13
2023-02-03T08:18:49.593Z,102162.72
2023-02-03T08:19:41.055Z,102161.91
2023-02-03T08:20:32.523Z,102161.81
2023-02-03T08:21:24.245Z,102165.22
2023-02-03T08:22:16.838Z,102173.81
2023-02-03T08:23:08.371Z,102173.00
2023-02-03T08:24:00.026Z,102173.97
2023-02-03T08:24:51.606Z,102168.94
2023-02-03T08:25:43.112Z,102162.78
2023-02-03T08:26:36.262Z,102168.13
2023-02-03T08:27:27.953Z,102185.47
2023-02-03T08:28:19.852Z,102192.31
2023-02-03T08:29:11.920Z,102192.25
2023-02-03T08:30:05.063Z,102191.34
2023-02-03T08:31:00.403Z,102192.81
2023-02-03T08:31:54.386Z,102196.31
2023-02-03T08:32:46.099Z,102196.53
2023-02-03T08:33:37.590Z,102184.50
2023-02-03T08:34:31.868Z,102192.41
2023-02-03T08:35:24.096Z,102192.25
2023-02-03T08:36:15.510Z,102191.94
2023-02-03T08:37:08.257Z,102203.34
2023-02-03T08:37:59.800Z,102207.97
2023-02-03T08:38:51.667Z,102205.38
2023-02-03T08:39:43.748Z,102211.22
2023-02-03T08:40:35.380Z,102198.16
2023-02-03T08:41:26.890Z,102197.34
2023-02-03T08:42:19.503Z,102206.19
2023-02-03T08:43:13.161Z,102197.19
2023-02-03T08:44:04.828Z,102202.53
2023-02-03T08:44:56.434Z,102206.69
2023-02-03T08:45:47.983Z,102203.94
2023-02-03T08:46:44.294Z,102209.91
2023-02-03T08:47:39.388Z,102203.94
2023-02-03T08:48:30.908Z,102207.16
2023-02-03T08:49:22.911Z,102208.06
2023-02-03T08:50:14.482Z,102201.09
2023-02-03T08:51:15.260Z,102211.22
2023-02-03T08:52:08.707Z,102210.25
2023-02-03T08:53:00.566Z,102210.19
2023-02-03T08:53:52.073Z,102211.06
2023-02-03T08:54:44.803Z,102213.00
2023-02-03T08:55:40.312Z,102196.41
2023-02-03T08:56:33.865Z,102206.47
2023-02-03T08:57:25.440Z,102194.47
2023-02-03T08:58:18.613Z,102195.28
2023-02-03T08:59:10.292Z,102190.00
2023-02-03T09:00:02.659Z,102202.31
2023-02-03T09:00:55.782Z,102191.06
2023-02-03T09:01:48.636Z,102206.03
2023-02-03T09:02:40.079Z,102206.84
2023-02-03T09:03:31.544Z,102195.66
2023-02-03T09:04:25.871Z,102188.47
2023-02-03T09:05:18.459Z,102187.88
2023-02-03T09:06:13.242Z,102199.00
2023-02-03T09:07:04.924Z,102202.47
2023-02-03T09:07:56.877Z,102204.19
2023-02-03T09:08:48.559Z,102206.94
2023-02-03T09:09:40.205Z,102204.91
2023-02-03T09:10:31.754Z,102204.34
2023-02-03T09:11:23.546Z,102205.47
2023-02-03T09:12:15.371Z,102200.34
2023-02-03T09:13:07.062Z,102203.53
2023-02-03T09:13:58.526Z,102203.84
2023-02-03T09:14:50.855Z,102200.59
2023-02-03T09:15:42.385Z,102203.94
2023-02-03T09:16:34.358Z,102207.31
2023-02-03T09:17:26.121Z,102197.69
2023-02-03T09:18:17.746Z,102204.00
2023-02-03T09:19:09.627Z,102201.97
2023-02-03T09:20:01.273Z,102203.84
2023-02-03T09:20:59.721Z,102209.69
2023-02-03T09:21:51.615Z,102207.16
2023-02-03T09:22:43.261Z,102211.53
2023-02-03T09:23:35.528Z,102214.13
2023-02-03T09:24:27.075Z,102206.53
2023-02-03T09:25:18.579Z,102203.19
2023-02-03T09:26:12.761Z,102204.00
2023-02-03T09:27:04.365Z,102198.91
2023-02-03T09:27:55.918Z,102194.44
2023-02-03T09:28:47.446Z,102195.97
2023-02-03T09:29:39.094Z,102193.56
2023-02-03T09:30:31.194Z,102206.69
2023-02-03T09:31:22.920Z,102200.69
2023-02-03T09:32:15.644Z,102219.69
2023-02-03T09:33:07.302Z,102208.38
2023-02-03T09:34:00.266Z,102218.63
2023-02-03T09:34:51.736Z,102210.81
2023-02-03T09:35:52.035Z,102204.66
2023-02-03T09:36:43.677Z,102207.00
2023-02-03T09:37:35.235Z,102209.75
2023-02-03T09:38:29.110Z,102208.78
2023-02-03T09:39:20.730Z,102200.03
2023-02-03T09:40:27.413Z,102187.16
2023-02-03T09:41:38.302Z,102195.81
2023-02-03T09:42:41.845Z,102194.13
2023-02-03T09:43:55.669Z,102195.25
2023-02-03T09:45:03.058Z,102196.63
2023-02-03T09:45:54.768Z,102203.59
2023-02-03T09:46:54.180Z,102188.69
2023-02-03T09:47:45.670Z,102199.88
2023-02-03T09:48:44.558Z,102186.19
2023-02-03T09:49:42.128Z,102202.78
2023-02-03T09:50:38.189Z,102192.41
2023-02-03T09:51:39.515Z,102189.81
2023-02-03T09:52:35.593Z,102188.63
2023-02-03T09:53:45.314Z,102180.97
2023-02-03T09:54:58.782Z,102189.66
2023-02-03T09:55:50.461Z,102192.34
2023-02-03T09:56:49.997Z,102196.78
2023-02-03T09:57:55.878Z,102192.34
2023-02-03T09:58:47.505Z,102193.31
2023-02-03T09:59:40.967Z,102182.91
2023-02-03T10:00:39.833Z,102196.72
2023-02-03T10:02:15.630Z,102193.22
2023-02-03T10:03:15.415Z,102199.88
2023-02-03T10:04:38.070Z,102196.41
2023-02-03T10:05:32.788Z,102205.66
2023-02-03T10:06:31.678Z,102215.28
2023-02-03T10:07:31.737Z,102203.06
2023-02-03T10:08:44.748Z,102200.28
2023-02-03T10:09:54.942Z,102200.28
2023-02-03T10:11:10.933Z,102198.50
2023-02-03T10:12:16.029Z,102209.22
2023-02-03T10:13:29.980Z,102222.81
2023-02-03T10:14:43.280Z,102212.91
2023-02-03T10:16:33.921Z,102217.22
2023-02-03T10:17:32.042Z,102223.06
2023-02-03T10:18:40.270Z,102225.66
2023-02-03T10:19:47.228Z,102220.63
2023-02-03T10:20:55.018Z,102220.88
2023-02-03T10:21:52.572Z,102236.25
2023-02-03T10:22:53.598Z,102218.91
2023-02-03T10:23:48.735Z,102229.22
2023-02-03T10:24:50.834Z,102235.28
2023-02-03T10:25:57.119Z,102236.91
2023-02-03T10:26:50.743Z,102230.84
2023-02-03T10:27:43.972Z,102224.34
2023-02-03T10:28:53.588Z,102236.41